sensor_id;sensor_type;location;lat;lon;timestamp;pressure;altitude;pressure_sealevel;temperature;humidity
51289;BME280;37372;52.294;5.152;2023-02-28T00:01:56;103234.38;;;2.53;73.99
51289;BME280;37372;52.294;5.152;2023-02-28T00:04:22;103233.63;;;2.51;73.92
51289;BME280;37372;52.294;5.152;2023-02-28T00:06:48;103222.69;;;2.52;74.08
51289;BME280;37372;52.294;5.152;2023-02-28T00:09:15;103228.19;;;2.51;73.99
51289;BME280;37372;52.294;5.152;2023-02-28T00:11:47;103226.34;;;2.51;73.76
51289;BME280;37372;52.294;5.152;2023-02-28T00:14:12;103236.22;;;2.52;73.90
51289;BME280;37372;52.294;5.152;2023-02-28T00:16:44;103229.94;;;2.52;74.48
51289;BME280;37372;52.294;5.152;2023-02-28T00:19:12;103228.19;;;2.51;74.49
51289;BME280;37372;52.294;5.152;2023-02-28T00:21:57;103233.75;;;2.49;74.50
51289;BME280;37372;52.294;5.152;2023-02-28T00:24:23;103234.84;;;2.47;74.60
51289;BME280;37372;52.294;5.152;2023-02-28T00:26:52;103232.03;;;2.48;74.85
51289;BME280;37372;52.294;5.152;2023-02-28T00:29:18;103239.03;;;2.51;74.62
51289;BME280;37372;52.294;5.152;2023-02-28T00:31:46;103235.97;;;2.55;75.36
51289;BME280;37372;52.294;5.152;2023-02-28T00:34:13;103232.78;;;2.61;75.03
51289;BME280;37372;52.294;5.152;2023-02-28T00:37:10;103228.88;;;2.65;75.24
51289;BME280;37372;52.294;5.152;2023-02-28T00:39:41;103229.47;;;2.69;75.45
51289;BME280;37372;52.294;5.152;2023-02-28T00:42:14;103228.47;;;2.70;74.63
51289;BME280;37372;52.294;5.152;2023-02-28T00:44:45;103230.47;;;2.68;74.61
51289;BME280;37372;52.294;5.152;2023-02-28T00:47:14;103223.81;;;2.72;74.17
51289;BME280;37372;52.294;5.152;2023-02-28T00:49:43;103229.13;;;2.74;74.00
51289;BME280;37372;52.294;5.152;2023-02-28T00:52:34;103229.63;;;2.79;74.00
51289;BME280;37372;52.294;5.152;2023-02-28T00:55:03;103224.44;;;2.76;73.82
51289;BME280;37372;52.294;5.152;2023-02-28T00:57:36;103210.03;;;2.75;74.13
51289;BME280;37372;52.294;5.152;2023-02-28T01:00:03;103215.69;;;2.72;74.42
51289;BME280;37372;52.294;5.152;2023-02-28T01:02:31;103220.88;;;2.75;74.64
51289;BME280;37372;52.294;5.152;2023-02-28T01:05:04;103220.88;;;2.75;74.47
51289;BME280;37372;52.294;5.152;2023-02-28T01:07:30;103228.00;;;2.76;74.14
51289;BME280;37372;52.294;5.152;2023-02-28T01:09:55;103229.16;;;2.85;73.71
51289;BME280;37372;52.294;5.152;2023-02-28T01:12:21;103222.72;;;2.86;73.69
51289;BME280;37372;52.294;5.152;2023-02-28T01:14:46;103221.63;;;2.88;73.34
51289;BME280;37372;52.294;5.152;2023-02-28T01:17:21;103228.28;;;2.84;73.41
51289;BME280;37372;52.294;5.152;2023-02-28T01:20:02;103229.75;;;2.88;73.65
51289;BME280;37372;52.294;5.152;2023-02-28T01:22:28;103226.03;;;2.89;73.89
51289;BME280;37372;52.294;5.152;2023-02-28T01:24:54;103226.03;;;2.89;73.96
51289;BME280;37372;52.294;5.152;2023-02-28T01:27:19;103223.09;;;2.92;73.33
51289;BME280;37372;52.294;5.152;2023-02-28T01:29:45;103219.88;;;2.87;73.85
51289;BME280;37372;52.294;5.152;2023-02-28T01:32:31;103216.69;;;2.93;73.62
51289;BME280;37372;52.294;5.152;2023-02-28T01:35:00;103206.56;;;2.95;73.30
51289;BME280;37372;52.294;5.152;2023-02-28T01:37:25;103214.63;;;2.97;73.85
51289;BME280;37372;52.294;5.152;2023-02-28T01:39:56;103205.00;;;2.93;74.31
51289;BME280;37372;52.294;5.152;2023-02-28T01:42:30;103211.63;;;2.89;74.38
51289;BME280;37372;52.294;5.152;2023-02-28T01:47:32;103198.84;;;2.91;74.39
51289;BME280;37372;52.294;5.152;2023-02-28T01:50:02;103196.34;;;2.88;74.38
51289;BME280;37372;52.294;5.152;2023-02-28T01:52:33;103195.50;;;2.87;74.25
51289;BME280;37372;52.294;5.152;2023-02-28T01:55:04;103195.50;;;2.87;74.52
51289;BME280;37372;52.294;5.152;2023-02-28T01:57:35;103192.91;;;2.86;74.59
51289;BME280;37372;52.294;5.152;2023-02-28T02:00:16;103192.06;;;2.85;74.35
51289;BME280;37372;52.294;5.152;2023-02-28T02:02:47;103203.75;;;2.86;74.11
51289;BME280;37372;52.294;5.152;2023-02-28T02:05:25;103198.22;;;2.87;74.38
51289;BME280;37372;52.294;5.152;2023-02-28T02:07:55;103185.38;;;2.89;74.24
51289;BME280;37372;52.294;5.152;2023-02-28T02:13:45;103181.81;;;2.89;74.44
51289;BME280;37372;52.294;5.152;2023-02-28T02:36:31;103197.22;;;2.77;75.54
51289;BME280;37372;52.294;5.152;2023-02-28T02:39:22;103183.69;;;2.77;75.56
51289;BME280;37372;52.294;5.152;2023-02-28T02:41:52;103183.69;;;2.77;75.43
51289;BME280;37372;52.294;5.152;2023-02-28T02:44:33;103191.69;;;2.79;75.76
51289;BME280;37372;52.294;5.152;2023-02-28T02:47:07;103184.28;;;2.81;75.97
51289;BME280;37372;52.294;5.152;2023-02-28T02:49:45;103177.75;;;2.83;75.92
51289;BME280;37372;52.294;5.152;2023-02-28T02:52:14;103180.44;;;2.83;75.99
51289;BME280;37372;52.294;5.152;2023-02-28T02:54:46;103177.75;;;2.83;75.49
51289;BME280;37372;52.294;5.152;2023-02-28T02:57:19;103182.31;;;2.83;75.99
51289;BME280;37372;52.294;5.152;2023-02-28T02:59:45;103183.41;;;2.80;75.93
51289;BME280;37372;52.294;5.152;2023-02-28T03:02:13;103181.69;;;2.79;76.03
51289;BME280;37372;52.294;5.152;2023-02-28T03:04:52;103188.13;;;2.78;75.76
51289;BME280;37372;52.294;5.152;2023-02-28T03:07:18;103189.84;;;2.79;75.70
51289;BME280;37372;52.294;5.152;2023-02-28T03:09:52;103190.56;;;2.81;76.07
51289;BME280;37372;52.294;5.152;2023-02-28T03:12:18;103186.00;;;2.82;76.26
51289;BME280;37372;52.294;5.152;2023-02-28T03:17:36;103183.16;;;2.83;75.79
51289;BME280;37372;52.294;5.152;2023-02-28T03:20:41;103190.19;;;2.86;75.92
51289;BME280;37372;52.294;5.152;2023-02-28T03:23:17;103173.06;;;2.85;75.85
51289;BME280;37372;52.294;5.152;2023-02-28T03:28:52;103178.38;;;2.87;75.73
51289;BME280;37372;52.294;5.152;2023-02-28T03:31:26;103168.16;;;2.90;75.88
51289;BME280;37372;52.294;5.152;2023-02-28T03:36:29;103171.97;;;2.88;75.76
51289;BME280;37372;52.294;5.152;2023-02-28T03:39:06;103175.53;;;2.88;75.84
51289;BME280;37372;52.294;5.152;2023-02-28T03:41:59;103179.22;;;2.87;75.90
51289;BME280;37372;52.294;5.152;2023-02-28T03:44:29;103174.53;;;2.89;75.58
51289;BME280;37372;52.294;5.152;2023-02-28T03:47:00;103184.41;;;2.90;75.82
51289;BME280;37372;52.294;5.152;2023-02-28T03:49:32;103184.41;;;2.90;76.07
51289;BME280;37372;52.294;5.152;2023-02-28T03:52:05;103180.72;;;2.91;75.59
51289;BME280;37372;52.294;5.152;2023-02-28T03:54:37;103183.44;;;2.91;75.52
51289;BME280;37372;52.294;5.152;2023-02-28T03:57:18;103185.38;;;2.89;75.49
51289;BME280;37372;52.294;5.152;2023-02-28T04:00:13;103179.09;;;2.89;75.60
51289;BME280;37372;52.294;5.152;2023-02-28T04:02:40;103183.44;;;2.91;75.60
51289;BME280;37372;52.294;5.152;2023-02-28T04:05:19;103194.28;;;2.91;75.58
51289;BME280;37372;52.294;5.152;2023-02-28T04:07:45;103184.41;;;2.90;75.90
51289;BME280;37372;52.294;5.152;2023-02-28T04:10:11;103183.44;;;2.91;75.96
51289;BME280;37372;52.294;5.152;2023-02-28T04:12:38;103181.81;;;2.89;75.75
51289;BME280;37372;52.294;5.152;2023-02-28T04:15:06;103188.72;;;2.93;75.45
51289;BME280;37372;52.294;5.152;2023-02-28T04:17:31;103190.81;;;2.89;75.43
51289;BME280;37372;52.294;5.152;2023-02-28T04:19:57;103185.28;;;2.91;75.22
51289;BME280;37372;52.294;5.152;2023-02-28T04:22:30;103189.59;;;2.93;73.97
51289;BME280;37372;52.294;5.152;2023-02-28T04:24:56;103188.97;;;2.90;74.56
51289;BME280;37372;52.294;5.152;2023-02-28T04:27:21;103183.66;;;2.88;74.77
51289;BME280;37372;52.294;5.152;2023-02-28T04:29:48;103187.38;;;2.87;74.46
51289;BME280;37372;52.294;5.152;2023-02-28T04:32:13;103193.75;;;2.75;73.81
51289;BME280;37372;52.294;5.152;2023-02-28T04:34:40;103191.69;;;2.79;74.75
51289;BME280;37372;52.294;5.152;2023-02-28T04:37:07;103187.84;;;2.81;75.48
51289;BME280;37372;52.294;5.152;2023-02-28T04:39:36;103190.19;;;2.75;74.49
51289;BME280;37372;52.294;5.152;2023-02-28T04:42:03;103190.66;;;2.68;75.31
51289;BME280;37372;52.294;5.152;2023-02-28T04:44:29;103193.34;;;2.57;75.43
51289;BME280;37372;52.294;5.152;2023-02-28T04:46:54;103191.63;;;2.56;76.00
51289;BME280;37372;52.294;5.152;2023-02-28T04:49:20;103195.59;;;2.52;77.11
51289;BME280;37372;52.294;5.152;2023-02-28T04:51:46;103190.41;;;2.49;77.02
51289;BME280;37372;52.294;5.152;2023-02-28T04:54:12;103192.88;;;2.52;76.41
51289;BME280;37372;52.294;5.152;2023-02-28T04:56:38;103186.69;;;2.39;77.12
51289;BME280;37372;52.294;5.152;2023-02-28T04:59:06;103189.63;;;2.36;77.78
51289;BME280;37372;52.294;5.152;2023-02-28T05:01:34;103183.50;;;2.45;77.55
51289;BME280;37372;52.294;5.152;2023-02-28T05:04:11;103177.94;;;2.35;78.71
51289;BME280;37372;52.294;5.152;2023-02-28T05:06:36;103175.34;;;2.34;78.84
51289;BME280;37372;52.294;5.152;2023-02-28T05:09:05;103177.06;;;2.35;78.87
51289;BME280;37372;52.294;5.152;2023-02-28T05:11:33;103190.75;;;2.33;79.45
51289;BME280;37372;52.294;5.152;2023-02-28T05:14:27;103182.09;;;2.28;79.13
51289;BME280;37372;52.294;5.152;2023-02-28T05:16:53;103181.47;;;2.13;79.71
51289;BME280;37372;52.294;5.152;2023-02-28T05:19:18;103184.91;;;2.15;80.34
51289;BME280;37372;52.294;5.152;2023-02-28T05:21:51;103187.75;;;2.14;79.92
51289;BME280;37372;52.294;5.152;2023-02-28T05:24:21;103185.50;;;2.08;80.37
51289;BME280;37372;52.294;5.152;2023-02-28T05:26:54;103186.19;;;1.99;81.18
51289;BME280;37372;52.294;5.152;2023-02-28T05:29:20;103193.03;;;1.92;81.55
51289;BME280;37372;52.294;5.152;2023-02-28T05:31:47;103196.88;;;1.89;81.95
51289;BME280;37372;52.294;5.152;2023-02-28T05:34:13;103197.59;;;1.91;82.11
51289;BME280;37372;52.294;5.152;2023-02-28T05:36:41;103195.59;;;1.82;82.21
51289;BME280;37372;52.294;5.152;2023-02-28T05:39:11;103200.66;;;1.86;83.18
51289;BME280;37372;52.294;5.152;2023-02-28T05:41:42;103196.88;;;1.89;83.34
51289;BME280;37372;52.294;5.152;2023-02-28T05:44:15;103189.47;;;1.91;83.17
51289;BME280;37372;52.294;5.152;2023-02-28T05:46:42;103205.31;;;1.84;82.91
51289;BME280;37372;52.294;5.152;2023-02-28T05:49:14;103198.00;;;1.74;82.43
51289;BME280;37372;52.294;5.152;2023-02-28T05:51:41;103193.88;;;1.81;83.08
51289;BME280;37372;52.294;5.152;2023-02-28T05:54:14;103196.22;;;1.85;83.34
51289;BME280;37372;52.294;5.152;2023-02-28T05:56:40;103202.84;;;1.81;82.63
51289;BME280;37372;52.294;5.152;2023-02-28T05:59:28;103204.31;;;1.74;80.06
51289;BME280;37372;52.294;5.152;2023-02-28T06:01:53;103205.72;;;1.67;79.62
51289;BME280;37372;52.294;5.152;2023-02-28T06:04:20;103199.59;;;1.52;78.56
51289;BME280;37372;52.294;5.152;2023-02-28T06:06:46;103208.88;;;1.61;78.31
51289;BME280;37372;52.294;5.152;2023-02-28T06:09:17;103211.09;;;1.56;77.76
51289;BME280;37372;52.294;5.152;2023-02-28T06:11:45;103211.50;;;1.62;78.00
51289;BME280;37372;52.294;5.152;2023-02-28T06:14:19;103209.00;;;1.59;78.03
51289;BME280;37372;52.294;5.152;2023-02-28T06:16:47;103214.97;;;1.52;77.59
51289;BME280;37372;52.294;5.152;2023-02-28T06:19:26;103218.66;;;1.51;77.39
51289;BME280;37372;52.294;5.152;2023-02-28T06:21:53;103215.50;;;1.57;76.50
51289;BME280;37372;52.294;5.152;2023-02-28T06:24:24;103212.72;;;1.46;77.79
51289;BME280;37372;52.294;5.152;2023-02-28T06:26:53;103219.13;;;1.45;77.90
51289;BME280;37372;52.294;5.152;2023-02-28T06:29:32;103220.25;;;1.29;77.47
51289;BME280;37372;52.294;5.152;2023-02-28T06:31:57;103222.63;;;1.21;77.59
51289;BME280;37372;52.294;5.152;2023-02-28T06:34:26;103223.72;;;1.19;77.70
51289;BME280;37372;52.294;5.152;2023-02-28T06:36:53;103225.13;;;1.24;77.35
51289;BME280;37372;52.294;5.152;2023-02-28T06:39:37;103218.00;;;1.23;78.86
51289;BME280;37372;52.294;5.152;2023-02-28T06:42:02;103226.75;;;1.14;79.41
51289;BME280;37372;52.294;5.152;2023-02-28T06:44:28;103231.28;;;1.14;80.02
51289;BME280;37372;52.294;5.152;2023-02-28T06:47:01;103243.34;;;0.97;79.71
51289;BME280;37372;52.294;5.152;2023-02-28T06:49:29;103237.13;;;1.07;80.64
51289;BME280;37372;52.294;5.152;2023-02-28T06:52:02;103244.28;;;0.96;80.24
51289;BME280;37372;52.294;5.152;2023-02-28T06:54:27;103249.16;;;0.91;80.92
51289;BME280;37372;52.294;5.152;2023-02-28T06:56:54;103243.84;;;0.89;81.22
51289;BME280;37372;52.294;5.152;2023-02-28T06:59:31;103240.81;;;0.94;81.79
51289;BME280;37372;52.294;5.152;2023-02-28T07:01:57;103240.63;;;0.97;81.94
51289;BME280;37372;52.294;5.152;2023-02-28T07:04:26;103244.06;;;0.99;82.69
51289;BME280;37372;52.294;5.152;2023-02-28T07:06:59;103251.88;;;1.03;82.53
51289;BME280;37372;52.294;5.152;2023-02-28T07:09:29;103260.06;;;1.02;82.09
51289;BME280;37372;52.294;5.152;2023-02-28T07:11:56;103258.88;;;0.93;82.48
51289;BME280;37372;52.294;5.152;2023-02-28T07:14:36;103257.28;;;0.91;82.67
51289;BME280;37372;52.294;5.152;2023-02-28T07:17:07;103264.41;;;0.92;83.12
51289;BME280;37372;52.294;5.152;2023-02-28T07:19:34;103269.94;;;0.90;82.75
51289;BME280;37372;52.294;5.152;2023-02-28T07:22:00;103271.09;;;0.86;83.20
51289;BME280;37372;52.294;5.152;2023-02-28T07:24:33;103261.81;;;0.90;83.07
51289;BME280;37372;52.294;5.152;2023-02-28T07:26:59;103257.34;;;0.89;82.96
51289;BME280;37372;52.294;5.152;2023-02-28T07:29:27;103268.72;;;0.94;82.55
51289;BME280;37372;52.294;5.152;2023-02-28T07:31:55;103269.81;;;0.92;82.15
51289;BME280;37372;52.294;5.152;2023-02-28T07:34:32;103271.53;;;0.93;82.62
51289;BME280;37372;52.294;5.152;2023-02-28T07:37:00;103262.44;;;0.94;82.47
51289;BME280;37372;52.294;5.152;2023-02-28T07:39:33;103260.91;;;0.90;82.54
51289;BME280;37372;52.294;5.152;2023-02-28T07:41:59;103267.41;;;0.87;82.55
51289;BME280;37372;52.294;5.152;2023-02-28T07:44:37;103268.16;;;0.89;82.40
51289;BME280;37372;52.294;5.152;2023-02-28T07:47:07;103264.06;;;0.84;81.79
51289;BME280;37372;52.294;5.152;2023-02-28T07:49:36;103263.19;;;0.96;82.53
51289;BME280;37372;52.294;5.152;2023-02-28T07:52:04;103260.59;;;0.94;81.19
51289;BME280;37372;52.294;5.152;2023-02-28T07:54:31;103251.22;;;0.87;82.86
51289;BME280;37372;52.294;5.152;2023-02-28T07:56:57;103254.03;;;0.86;83.03
51289;BME280;37372;52.294;5.152;2023-02-28T07:59:23;103248.94;;;0.94;83.26
51289;BME280;37372;52.294;5.152;2023-02-28T08:02:00;103254.03;;;0.98;83.23
51289;BME280;37372;52.294;5.152;2023-02-28T08:04:38;103248.28;;;1.03;83.32
51289;BME280;37372;52.294;5.152;2023-02-28T08:07:06;103246.47;;;1.03;83.47
51289;BME280;37372;52.294;5.152;2023-02-28T08:09:45;103248.69;;;1.22;83.25
51289;BME280;37372;52.294;5.152;2023-02-28T08:12:11;103244.69;;;1.15;82.18
51289;BME280;37372;52.294;5.152;2023-02-28T08:14:46;103248.47;;;1.25;83.10
51289;BME280;37372;52.294;5.152;2023-02-28T08:17:12;103254.84;;;1.24;82.29
51289;BME280;37372;52.294;5.152;2023-02-28T08:19:38;103257.00;;;1.32;82.77
51289;BME280;37372;52.294;5.152;2023-02-28T08:22:07;103247.38;;;1.28;81.46
51289;BME280;37372;52.294;5.152;2023-02-28T08:24:40;103252.25;;;1.35;82.69
51289;BME280;37372;52.294;5.152;2023-02-28T08:27:10;103255.88;;;1.47;82.47
51289;BME280;37372;52.294;5.152;2023-02-28T08:29:45;103248.53;;;1.49;81.13
51289;BME280;37372;52.294;5.152;2023-02-28T08:32:13;103245.28;;;1.44;82.19
51289;BME280;37372;52.294;5.152;2023-02-28T08:34:46;103255.81;;;1.36;82.22
51289;BME280;37372;52.294;5.152;2023-02-28T08:37:13;103254.19;;;1.33;81.53
51289;BME280;37372;52.294;5.152;2023-02-28T08:39:41;103255.91;;;1.34;82.27
51289;BME280;37372;52.294;5.152;2023-02-28T08:42:18;103256.75;;;1.48;82.76
51289;BME280;37372;52.294;5.152;2023-02-28T08:44:44;103255.56;;;1.52;82.14
51289;BME280;37372;52.294;5.152;2023-02-28T08:47:12;103247.00;;;1.58;82.52
51289;BME280;37372;52.294;5.152;2023-02-28T08:49:45;103254.84;;;1.61;81.74
51289;BME280;37372;52.294;5.152;2023-02-28T08:52:20;103261.75;;;1.78;81.73
51289;BME280;37372;52.294;5.152;2023-02-28T08:54:55;103260.22;;;1.74;82.06
51289;BME280;37372;52.294;5.152;2023-02-28T08:57:27;103261.53;;;1.81;81.82
51289;BME280;37372;52.294;5.152;2023-02-28T09:00:02;103264.28;;;1.92;81.88
51289;BME280;37372;52.294;5.152;2023-02-28T09:02:38;103258.19;;;2.01;81.60
51289;BME280;37372;52.294;5.152;2023-02-28T09:05:05;103256.44;;;2.24;82.01
51289;BME280;37372;52.294;5.152;2023-02-28T09:07:31;103275.69;;;2.32;81.96
51289;BME280;37372;52.294;5.152;2023-02-28T09:09:57;103266.72;;;2.08;81.38
51289;BME280;37372;52.294;5.152;2023-02-28T09:12:33;103275.97;;;2.16;82.21
51289;BME280;37372;52.294;5.152;2023-02-28T09:15:16;103276.25;;;2.25;82.19
51289;BME280;37372;52.294;5.152;2023-02-28T09:17:44;103283.09;;;2.41;81.24
51289;BME280;37372;52.294;5.152;2023-02-28T09:20:13;103283.25;;;2.51;82.00
51289;BME280;37372;52.294;5.152;2023-02-28T09:22:40;103279.53;;;2.41;79.85
51289;BME280;37372;52.294;5.152;2023-02-28T09:25:07;103280.06;;;2.46;80.28
51289;BME280;37372;52.294;5.152;2023-02-28T09:27:35;103279.47;;;2.54;80.31
51289;BME280;37372;52.294;5.152;2023-02-28T09:30:01;103281.56;;;2.61;80.84
51289;BME280;37372;52.294;5.152;2023-02-28T09:32:30;103273.94;;;2.66;80.60
51289;BME280;37372;52.294;5.152;2023-02-28T09:34:58;103281.56;;;2.61;79.20
51289;BME280;37372;52.294;5.152;2023-02-28T09:37:24;103277.94;;;2.50;76.76
51289;BME280;37372;52.294;5.152;2023-02-28T09:39:58;103277.81;;;2.86;75.69
51289;BME280;37372;52.294;5.152;2023-02-28T09:42:31;103270.88;;;2.71;76.87
51289;BME280;37372;52.294;5.152;2023-02-28T09:45:02;103275.72;;;2.79;77.47
51289;BME280;37372;52.294;5.152;2023-02-28T09:47:34;103274.59;;;2.81;77.37
51289;BME280;37372;52.294;5.152;2023-02-28T09:50:43;103269.19;;;2.92;74.68
51289;BME280;37372;52.294;5.152;2023-02-28T09:53:27;103279.44;;;3.11;74.56
51289;BME280;37372;52.294;5.152;2023-02-28T09:56:24;103282.59;;;2.71;72.02
51289;BME280;37372;52.294;5.152;2023-02-28T09:58:58;103275.28;;;2.61;70.76
51289;BME280;37372;52.294;5.152;2023-02-28T10:01:33;103272.47;;;2.74;72.26
51289;BME280;37372;52.294;5.152;2023-02-28T10:10:07;103274.88;;;3.12;70.72
51289;BME280;37372;52.294;5.152;2023-02-28T10:12:44;103275.25;;;3.41;69.02
51289;BME280;37372;52.294;5.152;2023-02-28T10:15:15;103281.16;;;3.57;68.51
51289;BME280;37372;52.294;5.152;2023-02-28T10:17:49;103279.53;;;3.66;68.81
51289;BME280;37372;52.294;5.152;2023-02-28T10:20:34;103275.09;;;3.76;65.99
51289;BME280;37372;52.294;5.152;2023-02-28T10:23:21;103271.16;;;3.58;69.01
51289;BME280;37372;52.294;5.152;2023-02-28T10:25:59;103279.06;;;3.38;65.19
51289;BME280;37372;52.294;5.152;2023-02-28T10:28:31;103278.59;;;3.44;67.23
51289;BME280;37372;52.294;5.152;2023-02-28T10:31:03;103281.25;;;3.67;63.80
51289;BME280;37372;52.294;5.152;2023-02-28T10:33:33;103272.63;;;3.73;64.37
51289;BME280;37372;52.294;5.152;2023-02-28T10:36:04;103273.97;;;3.78;62.80
51289;BME280;37372;52.294;5.152;2023-02-28T10:38:36;103268.56;;;3.67;62.06
51289;BME280;37372;52.294;5.152;2023-02-28T10:41:11;103274.97;;;3.77;64.38
51289;BME280;37372;52.294;5.152;2023-02-28T10:43:39;103270.06;;;4.03;64.71
51289;BME280;37372;52.294;5.152;2023-02-28T10:48:45;103264.28;;;4.08;61.21
51289;BME280;37372;52.294;5.152;2023-02-28T10:51:18;103261.19;;;4.13;61.66
51289;BME280;37372;52.294;5.152;2023-02-28T10:53:47;103256.25;;;4.39;60.20
51289;BME280;37372;52.294;5.152;2023-02-28T10:56:18;103265.38;;;4.38;58.14
51289;BME280;37372;52.294;5.152;2023-02-28T10:59:19;103255.91;;;4.53;58.58
51289;BME280;37372;52.294;5.152;2023-02-28T11:01:47;103249.94;;;4.80;57.91
51289;BME280;37372;52.294;5.152;2023-02-28T11:07:17;103249.34;;;4.34;54.27
51289;BME280;37372;52.294;5.152;2023-02-28T11:09:57;103251.22;;;4.23;52.57
51289;BME280;37372;52.294;5.152;2023-02-28T11:12:43;103249.16;;;4.47;50.17
51289;BME280;37372;52.294;5.152;2023-02-28T11:15:24;103241.19;;;4.55;50.71
51289;BME280;37372;52.294;5.152;2023-02-28T11:18:40;103248.53;;;4.44;50.97
51289;BME280;37372;52.294;5.152;2023-02-28T11:21:15;103234.63;;;4.79;48.06
51289;BME280;37372;52.294;5.152;2023-02-28T11:23:43;103236.66;;;4.86;49.85
51289;BME280;37372;52.294;5.152;2023-02-28T11:26:10;103231.19;;;5.07;45.45
51289;BME280;37372;52.294;5.152;2023-02-28T11:28:42;103226.31;;;4.80;46.98
51289;BME280;37372;52.294;5.152;2023-02-28T11:31:18;103225.03;;;5.05;48.88
51289;BME280;37372;52.294;5.152;2023-02-28T11:33:52;103217.25;;;4.91;45.50
51289;BME280;37372;52.294;5.152;2023-02-28T11:36:21;103209.06;;;4.91;47.57
51289;BME280;37372;52.294;5.152;2023-02-28T11:38:50;103215.53;;;4.90;47.33
51289;BME280;37372;52.294;5.152;2023-02-28T11:41:34;103208.44;;;4.78;47.89
51289;BME280;37372;52.294;5.152;2023-02-28T11:44:23;103206.78;;;4.66;48.10
51289;BME280;37372;52.294;5.152;2023-02-28T11:53:05;103205.31;;;4.20;45.64
51289;BME280;37372;52.294;5.152;2023-02-28T11:55:39;103205.56;;;4.17;46.50
51289;BME280;37372;52.294;5.152;2023-02-28T11:58:29;103197.19;;;4.20;46.60
51289;BME280;37372;52.294;5.152;2023-02-28T12:01:09;103202.03;;;4.05;44.77
51289;BME280;37372;52.294;5.152;2023-02-28T12:06:36;103192.13;;;4.15;47.09
51289;BME280;37372;52.294;5.152;2023-02-28T12:09:37;103190.03;;;4.19;47.70
51289;BME280;37372;52.294;5.152;2023-02-28T12:12:54;103188.94;;;4.10;44.67
51289;BME280;37372;52.294;5.152;2023-02-28T12:15:26;103184.97;;;4.14;47.77
51289;BME280;37372;52.294;5.152;2023-02-28T12:21:11;103189.41;;;4.15;47.33
51289;BME280;37372;52.294;5.152;2023-02-28T12:26:44;103184.31;;;4.22;46.67
51289;BME280;37372;52.294;5.152;2023-02-28T12:29:21;103174.63;;;4.29;46.15
51289;BME280;37372;52.294;5.152;2023-02-28T12:31:56;103176.78;;;4.46;46.54
51289;BME280;37372;52.294;5.152;2023-02-28T12:34:36;103173.41;;;4.33;46.32
51289;BME280;37372;52.294;5.152;2023-02-28T12:37:20;103170.72;;;4.22;46.40
51289;BME280;37372;52.294;5.152;2023-02-28T12:39:51;103171.72;;;4.21;46.45
51289;BME280;37372;52.294;5.152;2023-02-28T12:42:34;103166.88;;;4.24;45.87
51289;BME280;37372;52.294;5.152;2023-02-28T12:45:10;103171.16;;;4.38;46.43
51289;BME280;37372;52.294;5.152;2023-02-28T12:47:40;103172.00;;;4.39;46.66
51289;BME280;37372;52.294;5.152;2023-02-28T12:50:16;103162.44;;;4.44;46.80
51289;BME280;37372;52.294;5.152;2023-02-28T12:55:37;103162.22;;;4.57;48.10
51289;BME280;37372;52.294;5.152;2023-02-28T13:03:48;103154.53;;;4.62;46.95
51289;BME280;37372;52.294;5.152;2023-02-28T13:09:11;103160.97;;;4.61;46.65
51289;BME280;37372;52.294;5.152;2023-02-28T13:11:47;103159.09;;;4.61;45.46
51289;BME280;37372;52.294;5.152;2023-02-28T13:14:35;103144.50;;;4.62;45.27
51289;BME280;37372;52.294;5.152;2023-02-28T13:19:55;103145.13;;;4.66;46.80
51289;BME280;37372;52.294;5.152;2023-02-28T13:24:56;103140.00;;;4.73;50.62
51289;BME280;37372;52.294;5.152;2023-02-28T13:27:32;103137.75;;;4.57;49.41
51289;BME280;37372;52.294;5.152;2023-02-28T13:29:57;103144.19;;;4.56;50.48
51289;BME280;37372;52.294;5.152;2023-02-28T13:43:08;103130.75;;;4.54;56.41
51289;BME280;37372;52.294;5.152;2023-02-28T13:46:17;103121.44;;;4.57;60.80
51289;BME280;37372;52.294;5.152;2023-02-28T13:48:42;103123.75;;;4.52;59.84
51289;BME280;37372;52.294;5.152;2023-02-28T13:51:38;103128.03;;;4.54;58.72
51289;BME280;37372;52.294;5.152;2023-02-28T13:54:44;103123.59;;;4.53;60.23
51289;BME280;37372;52.294;5.152;2023-02-28T14:00:15;103116.31;;;4.63;46.57
51289;BME280;37372;52.294;5.152;2023-02-28T14:03:21;103110.63;;;4.67;45.07
51289;BME280;37372;52.294;5.152;2023-02-28T14:11:41;103112.41;;;4.77;43.25
51289;BME280;37372;52.294;5.152;2023-02-28T14:14:53;103105.66;;;4.72;43.32
51289;BME280;37372;52.294;5.152;2023-02-28T14:16:55;103103.50;;;4.75;43.46
51289;BME280;37372;52.294;5.152;2023-02-28T14:19:26;103109.63;;;4.68;42.95
51289;BME280;37372;52.294;5.152;2023-02-28T14:27:53;103106.78;;;4.69;41.56
51289;BME280;37372;52.294;5.152;2023-02-28T14:33:59;103100.09;;;4.83;44.20
51289;BME280;37372;52.294;5.152;2023-02-28T14:36:35;103103.50;;;4.75;56.36
51289;BME280;37372;52.294;5.152;2023-02-28T14:39:17;103110.47;;;4.58;59.93
51289;BME280;37372;52.294;5.152;2023-02-28T14:41:46;103110.06;;;4.42;60.33
51289;BME280;37372;52.294;5.152;2023-02-28T14:44:24;103111.09;;;4.41;60.33
51289;BME280;37372;52.294;5.152;2023-02-28T14:46:55;103105.47;;;4.33;62.31
51289;BME280;37372;52.294;5.152;2023-02-28T14:49:29;103104.00;;;4.29;62.45
51289;BME280;37372;52.294;5.152;2023-02-28T14:52:19;103104.28;;;4.26;63.08
51289;BME280;37372;52.294;5.152;2023-02-28T14:54:46;103112.00;;;4.30;63.43
51289;BME280;37372;52.294;5.152;2023-02-28T14:57:25;103105.53;;;4.22;62.75
51289;BME280;37372;52.294;5.152;2023-02-28T15:02:49;103096.53;;;4.21;64.12
51289;BME280;37372;52.294;5.152;2023-02-28T15:07:44;103104.50;;;4.13;64.24
51289;BME280;37372;52.294;5.152;2023-02-28T15:10:23;103101.84;;;4.02;63.46
51289;BME280;37372;52.294;5.152;2023-02-28T15:12:58;103104.28;;;4.05;63.87
51289;BME280;37372;52.294;5.152;2023-02-28T15:18:04;103102.16;;;4.08;63.75
51289;BME280;37372;52.294;5.152;2023-02-28T15:20:32;103105.03;;;4.07;62.79
51289;BME280;37372;52.294;5.152;2023-02-28T15:22:59;103095.25;;;4.04;62.43
51289;BME280;37372;52.294;5.152;2023-02-28T15:25:25;103096.97;;;4.05;62.80